Impacts TAF Board
For situational awareness. Not to be used for flight planning purposes.
IDs:

KDFW - Dallas-Ft Worth Intl, TX, US

Issued at 2329 UTC 18 Oct 2021
Updated at 0243 UTC 19 Oct 2021
Potential Impact None Slight Moderate High
Time0153Z 19/03Z 19/04Z 19/05Z 19/06Z 19/07Z 19/08Z 19/09Z 19/10Z 19/11Z 19/12Z 19/13Z 19/14Z 19/15Z>>
Type OBS PRVL PRVL PRVL PRVL PRVL PRVL PRVL PRVL PRVL PRVL PRVL PRVL PRVL
VIS 10 >6 >6 >6 >6 >6 >6 >6 >6 >6 >6 >6 >6 >6
CIG -- -- -- -- -- -- -- -- -- -- -- -- -- --
Cover SCT SCT SCT SCT SCT SCT SCT SCT SCT SCT SCT SCT SCT SCT
FltCat VFR VFR VFR VFR VFR VFR VFR VFR VFR VFR VFR VFR VFR VFR
WX -- -- -- -- -- -- -- -- -- -- -- -- -- --
WDir 140 160 160 160 160 160 160 160 160 160 160 160 160 170
WSpd 6 8 8 8 8 8 8 8 8 8 8 8 8 14
WGst -- -- -- -- -- -- -- -- -- -- -- -- -- --
R13/31
XWnd -1 -3 -3 -3 -3 -3 -3 -3 -3 -3 -3 -3 -3 -8
HWnd 6 7 7 7 7 7 7 7 7 7 7 7 7 11
R17/35
XWnd 4 3 3 3 3 3 3 3 3 3 3 3 3 2
HWnd 5 8 8 8 8 8 8 8 8 8 8 8 8 14
R18/36
XWnd 4 3 3 3 3 3 3 3 3 3 3 3 3 2
HWnd 5 8 8 8 8 8 8 8 8 8 8 8 8 14
Raw TAF
KDFW 182329Z 1900/2006 16008KT P6SM SCT250
  FM191500 17014KT P6SM SCT250


Raw METAR
KDFW 190153Z 14006KT 10SM SCT250 18/07 A3002 RMK AO2 SLP162 T01780072
KDFW 190053Z 16006KT 10SM BKN250 20/06 A3001 RMK AO2 SLP159 T02000056
KDFW 182353Z 16008KT 10SM BKN250 21/05 A3000 RMK AO2 SLP153 T02110050 10244 20211 56010

METAR Board
Radar Display
Forecast Discussion
For situational awareness. Not to be used for flight planning purposes.